Latest Weather Observations for Nowra

IDN60901

Issued at 6:21 pm EDT Sunday 29 March 2015 (issued every 10 minutes, with the page automatically refreshed every 10 minutes)

About weather observations | Map of Canberra area stations | Latest observations for Canberra area | Other Formats
Station Details ID: 068072 Name: NOWRA RAN AIR STATION AWS Lat: -34.95 Lon: 150.54 Height: 109.0 m
Data from the previous 72 hours. | See also: Recent months at Nowra
Date/Time
EDT
Tmp

°C
App
Tmp
°C
Dew
Point
°C
Rel
Hum
%
Delta-T

°C
Wind Press
QNH
hPa
Press
MSL
hPa
Rain
since
9 am
mm
Dir
 
Spd
km/h
Gust
km/h
Spd
kts
Gust
kts
29/05:30pm 21.6 20.3 15.9 70 3.4 E 17 20 9 11 1020.3 - 0.0
29/05:00pm 22.5 20.9 14.9 62 4.5 E 17 20 9 11 1020.3 - 0.0
29/04:30pm 22.7 20.7 14.0 58 5.1 E 17 20 9 11 1020.4 - 0.0
29/04:00pm 23.0 21.7 14.8 60 4.9 E 15 20 8 11 1020.3 - 0.0
29/03:30pm 22.9 20.3 13.7 56 5.4 ENE 20 26 11 14 1020.1 - 0.0
29/03:00pm 24.8 22.5 7.4 33 9.2 NNE 9 15 5 8 1020.2 1019.9 0.0
29/02:30pm 25.4 22.9 8.0 33 9.3 NE 11 17 6 9 1020.4 - 0.0
29/02:00pm 25.1 22.9 9.4 37 8.6 N 11 15 6 8 1020.8 - 0.0
29/01:30pm 25.2 23.8 11.0 41 8.0 ENE 9 17 5 9 1020.9 - 0.0
29/01:00pm 23.8 22.1 9.8 41 7.7 N 9 15 5 8 1021.4 - 0.0
29/12:30pm 23.2 21.4 10.9 46 6.9 N 11 17 6 9 1021.9 - 0.0
29/12:00pm 22.2 19.9 11.9 52 5.8 N 15 20 8 11 1022.1 1021.8 0.0
29/11:30am 21.9 19.7 12.2 54 5.5 NNW 15 19 8 10 1022.4 - 0.0
29/11:00am 20.7 18.9 12.1 58 4.8 NNW 13 20 7 11 1022.7 - 0.0
29/10:00am 18.5 16.9 12.7 69 3.3 WNW 13 17 7 9 1022.9 - 0.0
29/09:30am 16.8 15.1 12.3 75 2.5 WNW 13 15 7 8 1022.9 - 0.0
29/09:00am 14.8 13.5 12.5 86 1.3 WNW 11 13 6 7 1022.8 1022.5 0.0
29/08:30am 13.1 12.7 12.3 95 0.4 NW 6 9 3 5 1022.7 - 0.0
29/08:00am 11.3 11.7 11.1 99 0.1 CALM 0 6 0 3 1022.4 - 0.0
29/07:00am 10.2 10.1 9.6 96 0.3 CALM 0 0 0 0 1022.2 - 0.0
29/06:30am 11.2 10.2 11.0 99 0.1 NW 7 9 4 5 1021.9 - 0.0
29/05:30am 11.5 10.3 10.4 93 0.6 WNW 7 9 4 5 1021.5 - 0.0
29/05:00am 11.7 10.6 10.8 94 0.5 NW 7 9 4 5 1021.5 - 0.0
29/04:30am 11.7 10.3 10.8 94 0.5 NW 9 13 5 7 1021.4 - 0.0
29/04:00am 11.8 10.0 10.7 93 0.6 WNW 11 11 6 6 1021.7 - 0.0
29/03:30am 12.0 10.2 10.7 92 0.7 WNW 11 11 6 6 1021.8 - 0.0
29/03:00am 12.3 10.9 10.9 91 0.7 WNW 9 11 5 6 1022.0 1021.7 0.0
29/02:30am 12.2 10.1 11.1 93 0.6 WNW 13 15 7 8 1022.4 - 0.0
29/02:00am 12.3 10.9 11.0 92 0.7 WNW 9 11 5 6 1022.6 - 0.0
29/01:30am 12.2 10.4 10.9 92 0.7 WNW 11 11 6 6 1022.9 - 0.0
29/01:00am 13.3 12.4 11.2 87 1.1 W 7 11 4 6 1023.1 - 0.0
29/12:30am 13.2 11.9 11.1 87 1.1 W 9 9 5 5 1023.1 - 0.0
 
Date/Time
EDT
Tmp

°C
App
Tmp
°C
Dew
Point
°C
Rel
Hum
%
Delta-T

°C
Wind Press
QNH
hPa
Press
MSL
hPa
Rain
since
9 am
mm
Dir
 
Spd
km/h
Gust
km/h
Spd
kts
Gust
kts
28/11:30pm 13.1 11.8 11.2 88 1.0 WNW 9 13 5 7 1023.7 - 0.0
28/11:00pm 12.8 12.1 11.4 91 0.7 WNW 6 7 3 4 1023.9 - 0.0
28/10:30pm 12.9 12.6 11.3 90 0.8 W 4 7 2 4 1024.1 - 0.0
28/10:00pm 11.6 10.6 10.2 91 0.7 WSW 6 7 3 4 1023.8 - 0.0
28/09:30pm 12.9 11.7 11.6 92 0.7 W 9 9 5 5 1024.0 - 0.0
28/09:00pm 12.2 12.5 10.8 91 0.7 CALM 0 0 0 0 1023.5 1023.1 0.0
28/08:30pm 12.3 12.4 10.2 87 1.1 CALM 0 0 0 0 1023.3 - 0.0
28/08:00pm 13.0 13.2 10.4 84 1.4 CALM 0 0 0 0 1022.9 - 0.0
28/07:30pm 14.8 14.6 10.4 75 2.3 E 2 6 1 3 1022.7 - 0.0
28/07:00pm 16.6 15.5 10.7 68 3.2 E 7 9 4 5 1022.5 - 0.0
28/06:30pm 18.0 15.5 10.9 63 3.8 E 15 19 8 10 1022.2 - 0.0
28/06:00pm 19.2 16.1 10.2 56 4.8 ESE 17 22 9 12 1022.1 1021.8 0.0
28/05:30pm 19.7 16.6 9.0 50 5.7 SE 15 20 8 11 1022.0 - 0.0
28/05:00pm 20.0 16.4 8.4 47 6.1 ESE 17 24 9 13 1021.8 - 0.0
28/04:30pm 20.9 16.9 8.2 44 6.7 SSE 19 22 10 12 1021.7 - 0.0
28/04:00pm 21.3 17.4 8.6 44 6.7 SE 19 28 10 15 1021.8 - 0.0
28/03:30pm 21.5 17.8 8.1 42 7.0 SSE 17 24 9 13 1021.7 - 0.0
28/03:00pm 20.9 17.2 7.9 43 6.7 SE 17 24 9 13 1022.0 1021.7 0.0
28/02:30pm 20.8 18.3 6.7 40 7.2 SE 9 17 5 9 1022.2 - 0.0
28/02:00pm 20.8 17.0 7.4 42 6.9 SSE 17 22 9 12 1022.3 - 0.0
28/01:30pm 20.7 18.2 8.0 44 6.6 E 11 20 6 11 1022.6 - 0.0
28/01:00pm 20.9 18.3 7.9 43 6.8 E 11 19 6 10 1023.0 - 0.0
28/12:30pm 21.3 19.5 7.2 40 7.3 WNW 6 11 3 6 1023.4 - 0.0
28/12:00pm 19.8 16.6 6.9 43 6.5 SSE 13 20 7 11 1023.6 1023.2 0.0
28/11:30am 20.0 16.5 7.1 43 6.6 S 15 24 8 13 1023.6 - 0.0
28/11:00am 19.6 16.7 6.7 43 6.5 SSW 11 20 6 11 1023.7 - 0.0
28/10:30am 19.2 17.6 6.3 43 6.4 NW 4 9 2 5 1023.7 - 0.0
28/10:00am 17.7 14.9 6.9 49 5.4 NW 11 15 6 8 1023.8 - 0.0
28/09:30am 16.5 13.0 7.2 54 4.6 NW 15 19 8 10 1023.7 - 0.0
28/09:00am 15.2 11.2 6.5 56 4.2 NW 17 22 9 12 1023.5 1023.1 0.0
28/08:30am 14.2 9.7 6.3 59 3.8 WNW 19 22 10 12 1023.0 - 0.0
28/08:00am 13.1 9.0 6.0 62 3.4 WNW 17 20 9 11 1022.7 - 0.0
28/07:30am 12.1 7.5 5.7 65 3.0 WNW 19 20 10 11 1022.3 - 0.0
28/07:00am 11.8 7.5 5.4 65 3.0 WNW 17 22 9 12 1021.8 - 0.0
28/06:30am 12.1 7.5 5.5 64 3.1 WNW 19 22 10 12 1021.5 - 0.0
28/06:00am 12.1 7.9 5.5 64 3.1 WNW 17 20 9 11 1021.2 1020.9 0.0
28/05:30am 12.3 8.1 5.5 63 3.2 WNW 17 20 9 11 1020.9 - 0.0
28/05:00am 12.8 8.6 5.5 61 3.4 WNW 17 20 9 11 1020.7 - 0.0
28/04:30am 12.8 9.2 5.2 60 3.5 NW 13 17 7 9 1020.5 - 0.0
28/04:00am 13.0 9.5 5.4 60 3.6 NW 13 17 7 9 1020.4 - 0.0
28/03:30am 13.3 9.1 5.5 59 3.7 WNW 17 19 9 10 1020.4 - 0.0
28/03:00am 14.0 9.7 5.4 56 4.1 NW 17 20 9 11 1020.6 1020.3 0.0
28/02:30am 14.4 10.1 5.2 54 4.3 WNW 17 19 9 10 1020.6 - 0.0
28/02:00am 14.2 10.7 5.3 55 4.2 WNW 13 15 7 8 1020.5 - 0.0
28/01:30am 15.0 10.7 5.2 52 4.6 WNW 17 20 9 11 1020.5 - 0.0
28/01:00am 15.2 11.3 5.4 52 4.7 WNW 15 24 8 13 1020.3 - 0.0
28/12:30am 14.5 11.0 5.6 55 4.2 NW 13 15 7 8 1020.4 - 0.0
28/12:00am 15.4 11.5 5.3 51 4.8 NW 15 17 8 9 1020.5 1020.2 0.0
 
Date/Time
EDT
Tmp

°C
App
Tmp
°C
Dew
Point
°C
Rel
Hum
%
Delta-T

°C
Wind Press
QNH
hPa
Press
MSL
hPa
Rain
since
9 am
mm
Dir
 
Spd
km/h
Gust
km/h
Spd
kts
Gust
kts
27/11:30pm 15.8 12.2 5.1 49 5.1 WNW 13 17 7 9 1020.5 - 0.0
27/11:00pm 16.8 12.4 4.5 44 5.8 WNW 17 20 9 11 1020.2 - 0.0
27/10:30pm 16.8 12.4 4.5 44 5.8 W 17 20 9 11 1020.1 - 0.0
27/10:00pm 17.3 12.8 4.3 42 6.2 WNW 17 20 9 11 1019.8 - 0.0
27/09:30pm 17.8 13.6 4.0 40 6.5 WNW 15 20 8 11 1019.6 - 0.0
27/09:00pm 18.1 13.9 3.9 39 6.7 WNW 15 22 8 12 1019.4 1019.1 0.0
27/08:30pm 18.3 14.2 4.1 39 6.8 WNW 15 20 8 11 1019.0 - 0.0
27/08:00pm 18.8 14.2 3.8 37 7.1 WNW 17 26 9 14 1018.4 - 0.0
27/07:30pm 19.2 14.0 3.8 36 7.3 WNW 20 30 11 16 1017.8 - 0.0
27/07:00pm 19.9 14.7 3.6 34 7.8 WNW 20 28 11 15 1017.3 - 0.0
27/06:30pm 21.1 15.5 3.3 31 8.5 WNW 22 30 12 16 1016.9 - 0.0
27/06:00pm 22.0 16.1 4.1 31 8.7 WNW 24 37 13 20 1016.6 1016.2 0.0
27/05:30pm 22.6 16.7 3.7 29 9.2 WNW 24 35 13 19 1016.4 - 0.0
27/05:00pm 22.9 16.7 4.4 30 9.1 NW 26 37 14 20 1016.2 - 0.0
27/04:30pm 23.1 15.7 4.1 29 9.4 WNW 32 43 17 23 1016.1 - 0.0
27/04:00pm 23.0 17.1 4.0 29 9.3 WNW 24 33 13 18 1016.4 - 0.0
27/03:30pm 23.1 16.6 4.6 30 9.2 W 28 43 15 23 1016.6 - 0.0
27/03:00pm 22.9 17.4 3.9 29 9.3 W 22 33 12 18 1016.8 1016.5 0.0
27/02:30pm 22.9 15.2 3.4 28 9.5 W 33 39 18 21 1016.9 - 0.0
27/02:00pm 22.2 15.1 3.8 30 8.9 W 30 44 16 24 1017.3 - 0.0
27/01:31pm 22.2 14.9 4.3 31 8.8 W 32 50 17 27 1017.6 - 0.0
27/01:30pm 22.3 14.9 4.8 32 8.7 W 33 50 18 27 1017.6 - 0.0
27/01:02pm 21.8 14.5 4.4 32 8.5 W 32 50 17 27 1018.0 - 0.0
27/01:00pm 21.3 13.2 3.5 31 8.6 W 35 50 19 27 1018.1 - 0.0
27/12:37pm 21.5 14.9 4.1 32 8.5 W 28 50 15 27 1018.7 - -
27/12:30pm 21.2 14.6 4.3 33 8.2 W 28 43 15 23 1018.8 - 0.0
27/12:00pm 20.5 13.2 4.5 35 7.8 W 32 50 17 27 1018.7 1018.4 0.0
27/11:53am 20.4 13.7 3.6 33 8.0 W 28 50 15 27 1018.9 - 0.0
27/11:30am 20.0 13.4 4.1 35 7.7 W 28 43 15 23 1019.2 - 0.0
27/11:00am 19.5 12.9 4.4 37 7.3 WNW 28 43 15 23 1019.4 - 0.0
27/10:38am 18.7 12.0 3.7 37 7.1 WNW 28 46 15 25 1019.4 - 0.0
27/10:30am 18.9 13.9 4.7 39 6.9 WNW 20 33 11 18 1019.4 - 0.0
27/10:00am 17.5 10.8 3.8 40 6.4 WNW 28 52 15 28 1019.4 - 0.0
27/09:44am 17.1 10.5 4.1 42 6.1 WNW 28 48 15 26 1019.2 - 0.0
27/09:30am 16.7 10.0 3.7 42 6.1 WNW 28 43 15 23 1019.1 - 0.0
27/09:07am 16.0 9.0 4.1 45 5.6 WNW 30 52 16 28 1019.1 - 0.0
27/09:00am 15.8 9.1 3.9 45 5.5 WNW 28 37 15 20 1019.0 1018.7 0.0
27/08:30am 14.8 7.2 3.0 45 5.3 WNW 32 43 17 23 1019.0 - 0.0
27/08:00am 14.3 6.6 2.2 44 5.4 WNW 32 43 17 23 1019.0 - 0.0
27/07:30am 13.7 7.5 2.0 45 5.1 WNW 24 32 13 17 1018.8 - 0.0
27/07:00am 13.3 7.4 1.6 45 5.1 WNW 22 32 12 17 1018.6 - 0.0
27/06:30am 13.1 7.7 1.5 45 5.0 NW 19 35 10 19 1018.5 - 0.0
27/06:00am 13.7 8.2 0.7 41 5.5 WNW 19 32 10 17 1018.5 1018.2 0.0
27/05:30am 13.6 7.5 0.6 41 5.5 WNW 22 35 12 19 1018.0 - 0.0
27/05:00am 13.9 5.7 0.5 40 5.7 WNW 33 48 18 26 1017.5 - 0.0
27/04:48am 14.0 5.4 0.3 39 5.8 WNW 35 54 19 29 1017.6 - 0.0
27/04:30am 14.0 5.4 0.3 39 5.8 WNW 35 48 19 26 1017.7 - 0.0
27/04:00am 14.2 5.5 -0.3 37 6.1 WNW 35 46 19 25 1017.9 - 0.0
27/03:51am 14.2 5.9 -0.3 37 6.1 WNW 33 52 18 28 1018.0 - 0.0
27/03:30am 14.4 6.3 -0.5 36 6.2 WNW 32 43 17 23 1018.2 - 0.0
27/03:00am 14.6 6.2 -0.7 35 6.4 WNW 33 48 18 26 1018.3 1018.0 0.0
27/02:30am 14.4 7.4 -0.5 36 6.2 WNW 26 37 14 20 1019.1 - 0.0
27/02:00am 14.4 8.7 -0.5 36 6.2 WNW 19 30 10 16 1019.4 - 0.0
27/01:30am 14.6 10.0 -1.1 34 6.5 NW 13 19 7 10 1019.7 - 0.0
27/01:00am 14.4 10.3 -0.5 36 6.2 WNW 11 19 6 10 1019.9 - 0.0
27/12:30am 14.4 10.2 -0.8 35 6.3 NW 11 13 6 7 1019.8 - 0.0
27/12:00am 14.9 10.3 -0.8 34 6.5 WNW 13 19 7 10 1019.7 1019.4 0.0
 
Date/Time
EDT
Tmp

°C
App
Tmp
°C
Dew
Point
°C
Rel
Hum
%
Delta-T

°C
Wind Press
QNH
hPa
Press
MSL
hPa
Rain
since
9 am
mm
Dir
 
Spd
km/h
Gust
km/h
Spd
kts
Gust
kts
26/11:30pm 16.0 9.6 -1.5 30 7.3 WNW 22 39 12 21 1019.6 - 0.0
26/11:00pm 16.1 10.1 -1.5 30 7.3 WNW 20 26 11 14 1019.6 - 0.0
26/10:30pm 16.4 10.4 -1.2 30 7.4 WNW 20 28 11 15 1019.5 - 0.0
26/10:00pm 16.9 9.7 -1.7 28 7.8 WNW 26 41 14 22 1019.5 - 0.0
26/09:30pm 17.1 10.3 -1.5 28 7.8 WNW 24 33 13 18 1019.1 - 0.0
26/09:00pm 17.4 11.4 -1.3 28 7.9 W 20 30 11 16 1018.9 1018.6 0.0
26/08:30pm 18.1 11.8 -1.2 27 8.2 WNW 22 30 12 16 1018.3 - 0.0
26/08:00pm 18.7 11.7 -0.7 27 8.4 WNW 26 41 14 22 1017.9 - 0.0
26/07:30pm 18.8 13.5 3.0 35 7.4 W 20 32 11 17 1017.3 - 0.0
26/07:00pm 19.9 13.8 2.7 32 8.1 WNW 24 35 13 19 1016.9 - 0.0
26/06:30pm 21.1 14.4 3.8 32 8.3 W 28 37 15 20 1016.4 - 0.0

Latest Capital City Observations: Canberra | Sydney | Melbourne | Brisbane | Adelaide | Perth | Hobart | Darwin

Other Formats:

Comma delimited format used in spreadsheet applications
http://www.bom.gov.au/fwo/IDN60903/IDN60903.94750.axf

JavaScript Object Notation format (JSON) in row-major order
http://www.bom.gov.au/fwo/IDN60903/IDN60903.94750.json